Rapelje, Montana
Current Conditions -  °F | °C
As of 3:53 AM on Monday 20 Oct 2014 (Local Time) from KBIL Reporting Station
Clear Clear  
Wind Chill: 43°   Ceiling: Unl
Heat Index: 49°   Visibility: 10mi
Dew Point: 32°   Wind: 16mph
Humidity: 52%   Direction: 240°WSW
Pressure: 29.94"   Gusts: NA
Location:  45.97°N, 109.26°W
Report Text: KBIL 200953Z 24014KT 10SM CLR 09/00 A2994 RMK AO2 SLP122 T00940000
Loading
Personal Weather Stations






























Interactive Weather Map
Tropical Storm Tracking
New forecast layout! Learn more

10-Day Weather Forecast

Advertisements
Track Severe Weather on mobile